sensor_id;sensor_type;location;lat;lon;timestamp;temperature;humidity
18434;DHT22;9344;52.294;13.626;2022-07-22T00:01:21;20.60;99.90
18434;DHT22;9344;52.294;13.626;2022-07-22T00:03:48;20.60;99.90
18434;DHT22;9344;52.294;13.626;2022-07-22T00:06:14;20.60;99.90
18434;DHT22;9344;52.294;13.626;2022-07-22T00:08:41;20.60;99.90
18434;DHT22;9344;52.294;13.626;2022-07-22T00:11:08;20.70;99.90
18434;DHT22;9344;52.294;13.626;2022-07-22T00:13:35;20.70;99.90
18434;DHT22;9344;52.294;13.626;2022-07-22T00:16:02;20.70;99.90
18434;DHT22;9344;52.294;13.626;2022-07-22T00:18:28;20.70;99.90
18434;DHT22;9344;52.294;13.626;2022-07-22T00:20:55;20.70;99.90
18434;DHT22;9344;52.294;13.626;2022-07-22T00:23:21;20.70;99.90
18434;DHT22;9344;52.294;13.626;2022-07-22T00:25:48;20.70;99.90
18434;DHT22;9344;52.294;13.626;2022-07-22T00:28:16;20.70;99.90
18434;DHT22;9344;52.294;13.626;2022-07-22T00:30:42;20.70;99.90
18434;DHT22;9344;52.294;13.626;2022-07-22T00:33:09;20.70;99.90
18434;DHT22;9344;52.294;13.626;2022-07-22T00:35:35;20.70;99.90
18434;DHT22;9344;52.294;13.626;2022-07-22T00:38:02;20.80;99.90
18434;DHT22;9344;52.294;13.626;2022-07-22T00:40:29;20.80;99.90
18434;DHT22;9344;52.294;13.626;2022-07-22T00:42:55;20.80;99.90
18434;DHT22;9344;52.294;13.626;2022-07-22T00:45:23;20.90;99.90
18434;DHT22;9344;52.294;13.626;2022-07-22T00:47:50;20.90;99.90
18434;DHT22;9344;52.294;13.626;2022-07-22T00:50:16;20.90;99.90
18434;DHT22;9344;52.294;13.626;2022-07-22T00:52:45;20.90;99.90
18434;DHT22;9344;52.294;13.626;2022-07-22T00:55:12;21.00;99.90
18434;DHT22;9344;52.294;13.626;2022-07-22T00:57:39;20.90;99.90
18434;DHT22;9344;52.294;13.626;2022-07-22T01:00:08;21.00;99.90
18434;DHT22;9344;52.294;13.626;2022-07-22T01:02:37;20.90;99.90
18434;DHT22;9344;52.294;13.626;2022-07-22T01:05:05;20.90;99.90
18434;DHT22;9344;52.294;13.626;2022-07-22T01:07:31;20.90;99.90
18434;DHT22;9344;52.294;13.626;2022-07-22T01:09:58;20.90;99.90
18434;DHT22;9344;52.294;13.626;2022-07-22T01:12:24;20.90;99.90
18434;DHT22;9344;52.294;13.626;2022-07-22T01:14:51;20.90;99.90
18434;DHT22;9344;52.294;13.626;2022-07-22T01:17:17;20.90;99.90
18434;DHT22;9344;52.294;13.626;2022-07-22T01:19:45;20.90;99.90
18434;DHT22;9344;52.294;13.626;2022-07-22T01:22:13;20.90;99.90
18434;DHT22;9344;52.294;13.626;2022-07-22T01:24:40;20.90;99.90
18434;DHT22;9344;52.294;13.626;2022-07-22T01:27:06;21.00;99.90
18434;DHT22;9344;52.294;13.626;2022-07-22T01:29:33;20.90;99.90
18434;DHT22;9344;52.294;13.626;2022-07-22T01:31:59;21.00;99.90
18434;DHT22;9344;52.294;13.626;2022-07-22T01:34:26;21.00;99.90
18434;DHT22;9344;52.294;13.626;2022-07-22T01:36:53;21.00;99.90
18434;DHT22;9344;52.294;13.626;2022-07-22T01:39:20;21.00;99.90
18434;DHT22;9344;52.294;13.626;2022-07-22T01:41:47;21.00;99.90
18434;DHT22;9344;52.294;13.626;2022-07-22T01:44:14;21.00;99.90
18434;DHT22;9344;52.294;13.626;2022-07-22T01:46:40;21.00;99.90
18434;DHT22;9344;52.294;13.626;2022-07-22T01:49:07;21.00;99.90
18434;DHT22;9344;52.294;13.626;2022-07-22T01:51:33;21.00;99.90
18434;DHT22;9344;52.294;13.626;2022-07-22T01:54:00;21.00;99.90
18434;DHT22;9344;52.294;13.626;2022-07-22T01:56:28;20.90;99.90
18434;DHT22;9344;52.294;13.626;2022-07-22T01:58:54;20.90;99.90
18434;DHT22;9344;52.294;13.626;2022-07-22T02:01:21;20.90;99.90
18434;DHT22;9344;52.294;13.626;2022-07-22T02:03:47;20.90;99.90
18434;DHT22;9344;52.294;13.626;2022-07-22T02:06:14;20.90;99.90
18434;DHT22;9344;52.294;13.626;2022-07-22T02:08:40;20.90;99.90
18434;DHT22;9344;52.294;13.626;2022-07-22T02:11:07;20.90;99.90
18434;DHT22;9344;52.294;13.626;2022-07-22T02:13:35;20.80;99.90
18434;DHT22;9344;52.294;13.626;2022-07-22T02:16:01;20.80;99.90
18434;DHT22;9344;52.294;13.626;2022-07-22T02:18:28;20.80;99.90
18434;DHT22;9344;52.294;13.626;2022-07-22T02:20:55;20.70;99.90
18434;DHT22;9344;52.294;13.626;2022-07-22T02:23:21;20.70;99.90
18434;DHT22;9344;52.294;13.626;2022-07-22T02:25:48;20.70;99.90
18434;DHT22;9344;52.294;13.626;2022-07-22T02:28:14;20.70;99.90
18434;DHT22;9344;52.294;13.626;2022-07-22T02:30:42;20.60;99.90
18434;DHT22;9344;52.294;13.626;2022-07-22T02:33:08;20.60;99.90
18434;DHT22;9344;52.294;13.626;2022-07-22T02:35:35;20.50;99.90
18434;DHT22;9344;52.294;13.626;2022-07-22T02:38:02;20.50;99.90
18434;DHT22;9344;52.294;13.626;2022-07-22T02:40:30;20.50;99.90
18434;DHT22;9344;52.294;13.626;2022-07-22T02:42:56;20.50;99.90
18434;DHT22;9344;52.294;13.626;2022-07-22T02:45:23;20.50;99.90
18434;DHT22;9344;52.294;13.626;2022-07-22T02:47:52;20.50;99.90
18434;DHT22;9344;52.294;13.626;2022-07-22T02:50:19;20.50;99.90
18434;DHT22;9344;52.294;13.626;2022-07-22T02:52:46;20.50;99.90
18434;DHT22;9344;52.294;13.626;2022-07-22T02:55:13;20.50;99.90
18434;DHT22;9344;52.294;13.626;2022-07-22T02:57:40;20.40;99.90
18434;DHT22;9344;52.294;13.626;2022-07-22T03:00:09;20.40;99.90
18434;DHT22;9344;52.294;13.626;2022-07-22T03:02:37;20.30;99.90
18434;DHT22;9344;52.294;13.626;2022-07-22T03:05:06;20.30;99.90
18434;DHT22;9344;52.294;13.626;2022-07-22T03:07:32;20.20;99.90
18434;DHT22;9344;52.294;13.626;2022-07-22T03:09:59;20.10;99.90
18434;DHT22;9344;52.294;13.626;2022-07-22T03:12:25;20.00;99.90
18434;DHT22;9344;52.294;13.626;2022-07-22T03:14:52;19.90;99.90
18434;DHT22;9344;52.294;13.626;2022-07-22T03:17:18;19.80;99.90
18434;DHT22;9344;52.294;13.626;2022-07-22T03:19:45;19.80;99.90
18434;DHT22;9344;52.294;13.626;2022-07-22T03:22:13;19.80;99.90
18434;DHT22;9344;52.294;13.626;2022-07-22T03:24:39;19.70;99.90
18434;DHT22;9344;52.294;13.626;2022-07-22T03:27:06;19.80;99.90
18434;DHT22;9344;52.294;13.626;2022-07-22T03:29:32;19.70;99.90
18434;DHT22;9344;52.294;13.626;2022-07-22T03:31:59;19.70;99.90
18434;DHT22;9344;52.294;13.626;2022-07-22T03:34:25;19.80;99.90
18434;DHT22;9344;52.294;13.626;2022-07-22T03:36:52;19.90;99.90
18434;DHT22;9344;52.294;13.626;2022-07-22T03:39:20;20.00;99.90
18434;DHT22;9344;52.294;13.626;2022-07-22T03:41:46;20.10;99.90
18434;DHT22;9344;52.294;13.626;2022-07-22T03:44:13;20.20;99.90
18434;DHT22;9344;52.294;13.626;2022-07-22T03:46:39;20.30;99.90
18434;DHT22;9344;52.294;13.626;2022-07-22T03:49:06;20.30;99.90
18434;DHT22;9344;52.294;13.626;2022-07-22T03:51:32;20.40;99.90
18434;DHT22;9344;52.294;13.626;2022-07-22T03:53:59;20.50;99.90
18434;DHT22;9344;52.294;13.626;2022-07-22T03:56:26;20.50;99.90
18434;DHT22;9344;52.294;13.626;2022-07-22T03:58:53;20.50;99.90
18434;DHT22;9344;52.294;13.626;2022-07-22T04:01:20;20.50;99.90
18434;DHT22;9344;52.294;13.626;2022-07-22T04:03:46;20.50;99.90
18434;DHT22;9344;52.294;13.626;2022-07-22T04:06:13;20.50;99.90
18434;DHT22;9344;52.294;13.626;2022-07-22T04:08:40;20.60;99.90
18434;DHT22;9344;52.294;13.626;2022-07-22T04:11:07;20.70;99.90
18434;DHT22;9344;52.294;13.626;2022-07-22T04:13:35;20.90;99.90
18434;DHT22;9344;52.294;13.626;2022-07-22T04:16:01;21.20;99.90
18434;DHT22;9344;52.294;13.626;2022-07-22T04:18:29;21.40;99.90
18434;DHT22;9344;52.294;13.626;2022-07-22T04:20:56;21.70;99.90
18434;DHT22;9344;52.294;13.626;2022-07-22T04:23:23;22.40;99.90
18434;DHT22;9344;52.294;13.626;2022-07-22T04:25:49;23.80;99.90
18434;DHT22;9344;52.294;13.626;2022-07-22T04:28:16;25.00;99.90
18434;DHT22;9344;52.294;13.626;2022-07-22T04:30:43;26.10;99.90
18434;DHT22;9344;52.294;13.626;2022-07-22T04:33:10;27.20;1.00
18434;DHT22;9344;52.294;13.626;2022-07-22T04:35:36;27.90;1.00
18434;DHT22;9344;52.294;13.626;2022-07-22T04:38:03;28.60;1.00
18434;DHT22;9344;52.294;13.626;2022-07-22T04:40:30;29.20;99.90
18434;DHT22;9344;52.294;13.626;2022-07-22T04:42:56;29.70;1.00
18434;DHT22;9344;52.294;13.626;2022-07-22T04:45:23;30.20;1.00
18434;DHT22;9344;52.294;13.626;2022-07-22T04:47:51;30.00;1.00
18434;DHT22;9344;52.294;13.626;2022-07-22T04:50:17;29.40;1.00
18434;DHT22;9344;52.294;13.626;2022-07-22T04:52:45;29.20;1.00
18434;DHT22;9344;52.294;13.626;2022-07-22T04:55:11;28.20;1.00
18434;DHT22;9344;52.294;13.626;2022-07-22T04:57:38;28.90;1.00
18434;DHT22;9344;52.294;13.626;2022-07-22T05:00:05;29.30;1.00
18434;DHT22;9344;52.294;13.626;2022-07-22T05:02:32;29.30;1.00
18434;DHT22;9344;52.294;13.626;2022-07-22T05:05:00;27.90;1.00
18434;DHT22;9344;52.294;13.626;2022-07-22T05:07:26;27.10;1.00
18434;DHT22;9344;52.294;13.626;2022-07-22T05:09:53;26.80;99.90
18434;DHT22;9344;52.294;13.626;2022-07-22T05:12:19;29.70;1.00
18434;DHT22;9344;52.294;13.626;2022-07-22T05:14:46;32.40;99.90
18434;DHT22;9344;52.294;13.626;2022-07-22T05:17:12;34.10;97.90
18434;DHT22;9344;52.294;13.626;2022-07-22T05:19:40;35.10;99.90
18434;DHT22;9344;52.294;13.626;2022-07-22T05:22:08;34.30;99.90
18434;DHT22;9344;52.294;13.626;2022-07-22T05:24:35;33.70;84.50
18434;DHT22;9344;52.294;13.626;2022-07-22T05:27:01;33.70;99.90
18434;DHT22;9344;52.294;13.626;2022-07-22T05:29:28;33.20;99.90
18434;DHT22;9344;52.294;13.626;2022-07-22T05:31:55;32.10;99.90
18434;DHT22;9344;52.294;13.626;2022-07-22T05:34:21;31.30;99.90
18434;DHT22;9344;52.294;13.626;2022-07-22T05:36:48;30.20;99.90
18434;DHT22;9344;52.294;13.626;2022-07-22T05:39:16;29.10;99.90
18434;DHT22;9344;52.294;13.626;2022-07-22T05:41:43;28.30;99.90
18434;DHT22;9344;52.294;13.626;2022-07-22T05:44:09;27.40;1.00
18434;DHT22;9344;52.294;13.626;2022-07-22T05:46:36;26.70;99.90
18434;DHT22;9344;52.294;13.626;2022-07-22T05:49:03;26.20;99.90
18434;DHT22;9344;52.294;13.626;2022-07-22T05:51:29;25.80;1.00
18434;DHT22;9344;52.294;13.626;2022-07-22T05:53:56;25.50;99.90
18434;DHT22;9344;52.294;13.626;2022-07-22T05:56:23;25.30;45.10
18434;DHT22;9344;52.294;13.626;2022-07-22T05:58:50;25.20;99.90
18434;DHT22;9344;52.294;13.626;2022-07-22T06:01:16;25.20;1.00
18434;DHT22;9344;52.294;13.626;2022-07-22T06:03:43;25.00;99.90
18434;DHT22;9344;52.294;13.626;2022-07-22T06:06:09;25.00;99.90
18434;DHT22;9344;52.294;13.626;2022-07-22T06:08:37;25.00;99.90
18434;DHT22;9344;52.294;13.626;2022-07-22T06:11:03;25.00;99.90
18434;DHT22;9344;52.294;13.626;2022-07-22T06:13:32;25.00;99.90
18434;DHT22;9344;52.294;13.626;2022-07-22T06:15:58;24.90;99.90
18434;DHT22;9344;52.294;13.626;2022-07-22T06:18:25;24.80;99.90
18434;DHT22;9344;52.294;13.626;2022-07-22T06:20:52;24.70;1.00
18434;DHT22;9344;52.294;13.626;2022-07-22T06:23:18;24.50;99.90
18434;DHT22;9344;52.294;13.626;2022-07-22T06:25:45;24.40;1.00
18434;DHT22;9344;52.294;13.626;2022-07-22T06:28:12;24.30;1.00
18434;DHT22;9344;52.294;13.626;2022-07-22T06:30:40;24.20;99.90
18434;DHT22;9344;52.294;13.626;2022-07-22T06:33:07;24.10;1.00
18434;DHT22;9344;52.294;13.626;2022-07-22T06:35:33;24.10;1.00
18434;DHT22;9344;52.294;13.626;2022-07-22T06:38:00;24.10;1.00
18434;DHT22;9344;52.294;13.626;2022-07-22T06:40:26;24.10;99.90
18434;DHT22;9344;52.294;13.626;2022-07-22T06:42:53;24.20;99.90
18434;DHT22;9344;52.294;13.626;2022-07-22T06:45:19;24.20;99.90
18434;DHT22;9344;52.294;13.626;2022-07-22T06:47:48;24.20;99.90
18434;DHT22;9344;52.294;13.626;2022-07-22T06:50:14;24.30;1.00
18434;DHT22;9344;52.294;13.626;2022-07-22T06:52:41;24.40;1.00
18434;DHT22;9344;52.294;13.626;2022-07-22T06:55:09;24.50;1.00
18434;DHT22;9344;52.294;13.626;2022-07-22T06:57:36;24.50;1.00
18434;DHT22;9344;52.294;13.626;2022-07-22T07:00:03;24.50;1.00
18434;DHT22;9344;52.294;13.626;2022-07-22T07:02:31;24.50;1.00
18434;DHT22;9344;52.294;13.626;2022-07-22T07:04:58;24.50;1.00
18434;DHT22;9344;52.294;13.626;2022-07-22T07:07:25;24.70;99.90
18434;DHT22;9344;52.294;13.626;2022-07-22T07:09:52;24.80;1.00
18434;DHT22;9344;52.294;13.626;2022-07-22T07:12:18;24.90;1.00
18434;DHT22;9344;52.294;13.626;2022-07-22T07:14:45;25.00;99.90
18434;DHT22;9344;52.294;13.626;2022-07-22T07:17:11;25.30;1.00
18434;DHT22;9344;52.294;13.626;2022-07-22T07:19:38;25.50;1.00
18434;DHT22;9344;52.294;13.626;2022-07-22T07:22:05;25.70;99.90
18434;DHT22;9344;52.294;13.626;2022-07-22T07:24:32;26.10;1.00
18434;DHT22;9344;52.294;13.626;2022-07-22T07:26:59;26.70;99.90
18434;DHT22;9344;52.294;13.626;2022-07-22T07:29:25;27.10;1.00
18434;DHT22;9344;52.294;13.626;2022-07-22T07:31:52;27.30;99.90
18434;DHT22;9344;52.294;13.626;2022-07-22T07:34:18;27.30;1.00
18434;DHT22;9344;52.294;13.626;2022-07-22T07:36:46;27.10;1.00
18434;DHT22;9344;52.294;13.626;2022-07-22T07:39:13;27.20;1.00
18434;DHT22;9344;52.294;13.626;2022-07-22T07:41:40;27.40;1.00
18434;DHT22;9344;52.294;13.626;2022-07-22T07:44:06;27.60;1.00
18434;DHT22;9344;52.294;13.626;2022-07-22T07:46:33;27.80;1.00
18434;DHT22;9344;52.294;13.626;2022-07-22T07:49:00;27.90;99.90
18434;DHT22;9344;52.294;13.626;2022-07-22T07:51:27;28.20;99.90
18434;DHT22;9344;52.294;13.626;2022-07-22T07:53:53;28.30;99.90
18434;DHT22;9344;52.294;13.626;2022-07-22T07:56:21;28.70;14.70
18434;DHT22;9344;52.294;13.626;2022-07-22T07:58:47;29.00;1.00
18434;DHT22;9344;52.294;13.626;2022-07-22T08:01:14;29.00;1.00
18434;DHT22;9344;52.294;13.626;2022-07-22T08:03:40;29.10;1.00
18434;DHT22;9344;52.294;13.626;2022-07-22T08:06:07;29.30;1.00
18434;DHT22;9344;52.294;13.626;2022-07-22T08:08:34;29.60;1.00
18434;DHT22;9344;52.294;13.626;2022-07-22T08:11:00;30.00;1.00
18434;DHT22;9344;52.294;13.626;2022-07-22T08:13:28;30.50;99.90
18434;DHT22;9344;52.294;13.626;2022-07-22T08:15:55;31.40;99.90
18434;DHT22;9344;52.294;13.626;2022-07-22T08:18:21;32.40;99.90
18434;DHT22;9344;52.294;13.626;2022-07-22T08:20:48;33.10;18.50
18434;DHT22;9344;52.294;13.626;2022-07-22T08:23:15;34.40;1.00
18434;DHT22;9344;52.294;13.626;2022-07-22T08:25:41;35.20;1.00
18434;DHT22;9344;52.294;13.626;2022-07-22T08:28:08;38.20;1.00
18434;DHT22;9344;52.294;13.626;2022-07-22T08:30:36;41.90;1.00
18434;DHT22;9344;52.294;13.626;2022-07-22T08:33:03;41.80;1.00
18434;DHT22;9344;52.294;13.626;2022-07-22T08:35:29;44.40;1.00
18434;DHT22;9344;52.294;13.626;2022-07-22T08:37:56;46.40;1.00
18434;DHT22;9344;52.294;13.626;2022-07-22T08:40:22;47.60;99.90
18434;DHT22;9344;52.294;13.626;2022-07-22T08:42:50;45.20;99.90
18434;DHT22;9344;52.294;13.626;2022-07-22T08:45:17;43.90;99.90
18434;DHT22;9344;52.294;13.626;2022-07-22T08:47:46;43.10;99.90
18434;DHT22;9344;52.294;13.626;2022-07-22T08:50:13;42.40;1.00
18434;DHT22;9344;52.294;13.626;2022-07-22T08:52:40;45.50;99.90
18434;DHT22;9344;52.294;13.626;2022-07-22T08:55:08;48.70;99.90
18434;DHT22;9344;52.294;13.626;2022-07-22T08:57:35;50.70;99.90
18434;DHT22;9344;52.294;13.626;2022-07-22T09:00:09;50.40;99.90
18434;DHT22;9344;52.294;13.626;2022-07-22T09:02:37;49.50;99.90
18434;DHT22;9344;52.294;13.626;2022-07-22T09:05:07;48.50;99.90
18434;DHT22;9344;52.294;13.626;2022-07-22T09:07:36;46.20;99.90
18434;DHT22;9344;52.294;13.626;2022-07-22T09:10:05;43.60;99.90
18434;DHT22;9344;52.294;13.626;2022-07-22T09:12:31;41.60;99.90
18434;DHT22;9344;52.294;13.626;2022-07-22T09:15:01;42.40;99.90
18434;DHT22;9344;52.294;13.626;2022-07-22T09:17:29;42.40;99.90
18434;DHT22;9344;52.294;13.626;2022-07-22T09:19:58;42.00;99.90
18434;DHT22;9344;52.294;13.626;2022-07-22T09:22:37;39.90;99.90
18434;DHT22;9344;52.294;13.626;2022-07-22T09:25:21;38.00;99.90
18434;DHT22;9344;52.294;13.626;2022-07-22T09:27:49;36.40;99.90
18434;DHT22;9344;52.294;13.626;2022-07-22T09:30:18;35.40;99.90
18434;DHT22;9344;52.294;13.626;2022-07-22T09:32:45;34.40;99.90
18434;DHT22;9344;52.294;13.626;2022-07-22T09:35:12;33.90;99.90
18434;DHT22;9344;52.294;13.626;2022-07-22T09:37:51;34.10;99.90
18434;DHT22;9344;52.294;13.626;2022-07-22T09:40:20;38.90;99.90
18434;DHT22;9344;52.294;13.626;2022-07-22T09:42:50;39.40;99.90
18434;DHT22;9344;52.294;13.626;2022-07-22T09:45:17;40.90;99.90
18434;DHT22;9344;52.294;13.626;2022-07-22T09:47:44;41.80;99.90
18434;DHT22;9344;52.294;13.626;2022-07-22T09:50:21;40.60;99.90
18434;DHT22;9344;52.294;13.626;2022-07-22T09:52:53;39.10;99.90
18434;DHT22;9344;52.294;13.626;2022-07-22T09:55:21;37.60;99.90
18434;DHT22;9344;52.294;13.626;2022-07-22T09:57:49;36.20;99.90
18434;DHT22;9344;52.294;13.626;2022-07-22T10:00:17;35.40;99.90
18434;DHT22;9344;52.294;13.626;2022-07-22T10:02:47;34.60;99.90
18434;DHT22;9344;52.294;13.626;2022-07-22T10:05:16;34.30;99.90
18434;DHT22;9344;52.294;13.626;2022-07-22T10:07:44;34.90;99.90
18434;DHT22;9344;52.294;13.626;2022-07-22T10:10:13;35.80;99.90
18434;DHT22;9344;52.294;13.626;2022-07-22T10:12:41;36.90;99.90
18434;DHT22;9344;52.294;13.626;2022-07-22T10:15:09;36.40;99.90
18434;DHT22;9344;52.294;13.626;2022-07-22T10:17:37;35.90;99.90
18434;DHT22;9344;52.294;13.626;2022-07-22T10:20:05;35.20;99.90
18434;DHT22;9344;52.294;13.626;2022-07-22T10:22:56;34.30;99.90
18434;DHT22;9344;52.294;13.626;2022-07-22T10:25:26;33.30;99.90
18434;DHT22;9344;52.294;13.626;2022-07-22T10:27:57;32.10;99.90
18434;DHT22;9344;52.294;13.626;2022-07-22T10:30:26;31.20;99.90
18434;DHT22;9344;52.294;13.626;2022-07-22T10:33:11;30.30;1.00
18434;DHT22;9344;52.294;13.626;2022-07-22T10:35:52;29.60;1.00
18434;DHT22;9344;52.294;13.626;2022-07-22T10:38:19;29.10;1.00
18434;DHT22;9344;52.294;13.626;2022-07-22T10:40:53;28.60;1.00
18434;DHT22;9344;52.294;13.626;2022-07-22T10:43:21;28.20;1.00
18434;DHT22;9344;52.294;13.626;2022-07-22T10:45:50;28.00;1.00
18434;DHT22;9344;52.294;13.626;2022-07-22T10:48:20;28.00;1.00
18434;DHT22;9344;52.294;13.626;2022-07-22T10:53:40;28.50;1.00
18434;DHT22;9344;52.294;13.626;2022-07-22T10:56:15;29.20;1.00
18434;DHT22;9344;52.294;13.626;2022-07-22T10:58:44;30.00;1.00
18434;DHT22;9344;52.294;13.626;2022-07-22T11:01:13;30.70;1.00
18434;DHT22;9344;52.294;13.626;2022-07-22T11:03:41;31.20;1.00
18434;DHT22;9344;52.294;13.626;2022-07-22T11:06:20;31.90;1.00
18434;DHT22;9344;52.294;13.626;2022-07-22T11:08:49;32.30;1.00
18434;DHT22;9344;52.294;13.626;2022-07-22T11:11:18;32.10;1.00
18434;DHT22;9344;52.294;13.626;2022-07-22T11:13:45;31.50;1.00
18434;DHT22;9344;52.294;13.626;2022-07-22T11:16:17;31.60;1.00
18434;DHT22;9344;52.294;13.626;2022-07-22T11:18:45;31.70;1.00
18434;DHT22;9344;52.294;13.626;2022-07-22T11:21:14;32.10;1.00
18434;DHT22;9344;52.294;13.626;2022-07-22T11:23:41;32.30;1.00
18434;DHT22;9344;52.294;13.626;2022-07-22T11:26:08;32.00;1.00
18434;DHT22;9344;52.294;13.626;2022-07-22T11:28:40;31.40;1.00
18434;DHT22;9344;52.294;13.626;2022-07-22T11:31:07;30.90;1.00
18434;DHT22;9344;52.294;13.626;2022-07-22T11:33:34;30.80;1.00
18434;DHT22;9344;52.294;13.626;2022-07-22T11:36:03;30.90;1.00
18434;DHT22;9344;52.294;13.626;2022-07-22T11:38:46;31.20;1.00
18434;DHT22;9344;52.294;13.626;2022-07-22T11:41:15;31.60;1.00
18434;DHT22;9344;52.294;13.626;2022-07-22T11:43:44;32.00;1.00
18434;DHT22;9344;52.294;13.626;2022-07-22T11:46:11;32.00;1.00
18434;DHT22;9344;52.294;13.626;2022-07-22T11:48:38;32.10;1.00
18434;DHT22;9344;52.294;13.626;2022-07-22T11:51:06;31.90;1.00
18434;DHT22;9344;52.294;13.626;2022-07-22T11:53:33;31.60;1.00
18434;DHT22;9344;52.294;13.626;2022-07-22T11:56:00;31.30;1.00
18434;DHT22;9344;52.294;13.626;2022-07-22T11:58:37;31.00;1.00
18434;DHT22;9344;52.294;13.626;2022-07-22T12:01:07;30.40;1.00
18434;DHT22;9344;52.294;13.626;2022-07-22T12:03:35;29.90;1.00
18434;DHT22;9344;52.294;13.626;2022-07-22T12:06:03;29.30;1.00
18434;DHT22;9344;52.294;13.626;2022-07-22T12:08:31;28.80;1.00
18434;DHT22;9344;52.294;13.626;2022-07-22T12:10:58;28.40;1.00
18434;DHT22;9344;52.294;13.626;2022-07-22T12:13:29;28.00;1.00
18434;DHT22;9344;52.294;13.626;2022-07-22T12:15:56;27.70;1.00
18434;DHT22;9344;52.294;13.626;2022-07-22T12:18:26;27.50;1.00
18434;DHT22;9344;52.294;13.626;2022-07-22T12:20:55;27.30;1.00
18434;DHT22;9344;52.294;13.626;2022-07-22T12:23:24;27.20;1.00
18434;DHT22;9344;52.294;13.626;2022-07-22T12:25:57;27.10;99.90
18434;DHT22;9344;52.294;13.626;2022-07-22T12:28:25;27.00;99.90
18434;DHT22;9344;52.294;13.626;2022-07-22T12:30:54;27.00;99.90
18434;DHT22;9344;52.294;13.626;2022-07-22T12:33:22;27.20;99.90
18434;DHT22;9344;52.294;13.626;2022-07-22T12:36:01;27.40;99.90
18434;DHT22;9344;52.294;13.626;2022-07-22T12:38:28;27.90;99.90
18434;DHT22;9344;52.294;13.626;2022-07-22T12:40:55;28.50;99.90
18434;DHT22;9344;52.294;13.626;2022-07-22T12:43:25;29.20;99.90
18434;DHT22;9344;52.294;13.626;2022-07-22T12:45:52;30.10;79.00
18434;DHT22;9344;52.294;13.626;2022-07-22T12:48:19;30.50;1.00
18434;DHT22;9344;52.294;13.626;2022-07-22T12:50:55;30.50;1.00
18434;DHT22;9344;52.294;13.626;2022-07-22T12:53:25;30.30;1.00
18434;DHT22;9344;52.294;13.626;2022-07-22T12:55:55;30.20;1.00
18434;DHT22;9344;52.294;13.626;2022-07-22T12:58:25;29.90;1.00
18434;DHT22;9344;52.294;13.626;2022-07-22T13:00:53;30.00;1.00
18434;DHT22;9344;52.294;13.626;2022-07-22T13:03:21;30.00;1.00
18434;DHT22;9344;52.294;13.626;2022-07-22T13:05:53;29.90;1.00
18434;DHT22;9344;52.294;13.626;2022-07-22T13:08:20;29.60;1.00
18434;DHT22;9344;52.294;13.626;2022-07-22T13:10:48;29.20;1.00
18434;DHT22;9344;52.294;13.626;2022-07-22T13:13:15;28.90;1.00
18434;DHT22;9344;52.294;13.626;2022-07-22T13:15:42;28.80;1.00
18434;DHT22;9344;52.294;13.626;2022-07-22T13:18:08;29.00;1.00
18434;DHT22;9344;52.294;13.626;2022-07-22T13:20:35;29.00;1.00
18434;DHT22;9344;52.294;13.626;2022-07-22T13:23:01;29.00;1.00
18434;DHT22;9344;52.294;13.626;2022-07-22T13:25:28;28.70;1.00
18434;DHT22;9344;52.294;13.626;2022-07-22T13:27:57;28.40;1.00
18434;DHT22;9344;52.294;13.626;2022-07-22T13:30:24;28.30;8.20
18434;DHT22;9344;52.294;13.626;2022-07-22T13:32:51;28.30;18.90
18434;DHT22;9344;52.294;13.626;2022-07-22T13:35:18;28.30;6.90
18434;DHT22;9344;52.294;13.626;2022-07-22T13:37:45;28.20;28.00
18434;DHT22;9344;52.294;13.626;2022-07-22T13:40:12;28.30;22.30
18434;DHT22;9344;52.294;13.626;2022-07-22T13:42:39;28.50;16.90
18434;DHT22;9344;52.294;13.626;2022-07-22T13:45:08;28.80;4.80
18434;DHT22;9344;52.294;13.626;2022-07-22T13:47:37;29.10;1.00
18434;DHT22;9344;52.294;13.626;2022-07-22T13:50:05;29.40;1.00
18434;DHT22;9344;52.294;13.626;2022-07-22T13:52:32;29.60;1.00
18434;DHT22;9344;52.294;13.626;2022-07-22T13:54:59;30.00;1.00
18434;DHT22;9344;52.294;13.626;2022-07-22T13:57:26;30.50;1.00
18434;DHT22;9344;52.294;13.626;2022-07-22T13:59:52;30.60;1.00
18434;DHT22;9344;52.294;13.626;2022-07-22T14:02:20;30.70;1.00
18434;DHT22;9344;52.294;13.626;2022-07-22T14:04:47;30.50;1.00
18434;DHT22;9344;52.294;13.626;2022-07-22T14:07:13;30.10;1.00
18434;DHT22;9344;52.294;13.626;2022-07-22T14:09:40;29.70;1.00
18434;DHT22;9344;52.294;13.626;2022-07-22T14:12:07;29.40;1.00
18434;DHT22;9344;52.294;13.626;2022-07-22T14:14:34;29.30;1.00
18434;DHT22;9344;52.294;13.626;2022-07-22T14:17:01;29.60;1.00
18434;DHT22;9344;52.294;13.626;2022-07-22T14:19:29;29.80;1.00
18434;DHT22;9344;52.294;13.626;2022-07-22T14:21:56;29.80;1.00
18434;DHT22;9344;52.294;13.626;2022-07-22T14:24:22;29.70;1.00
18434;DHT22;9344;52.294;13.626;2022-07-22T14:26:50;29.60;1.00
18434;DHT22;9344;52.294;13.626;2022-07-22T14:29:17;29.60;1.00
18434;DHT22;9344;52.294;13.626;2022-07-22T14:31:44;29.60;1.00
18434;DHT22;9344;52.294;13.626;2022-07-22T14:34:11;29.60;1.00
18434;DHT22;9344;52.294;13.626;2022-07-22T14:36:39;29.50;1.00
18434;DHT22;9344;52.294;13.626;2022-07-22T14:39:06;29.70;1.00
18434;DHT22;9344;52.294;13.626;2022-07-22T14:41:33;29.70;1.00
18434;DHT22;9344;52.294;13.626;2022-07-22T14:44:00;29.60;1.00
18434;DHT22;9344;52.294;13.626;2022-07-22T14:46:26;29.40;1.00
18434;DHT22;9344;52.294;13.626;2022-07-22T14:48:53;29.10;1.00
18434;DHT22;9344;52.294;13.626;2022-07-22T14:51:20;28.90;1.00
18434;DHT22;9344;52.294;13.626;2022-07-22T14:53:49;28.60;1.00
18434;DHT22;9344;52.294;13.626;2022-07-22T14:56:16;28.20;1.00
18434;DHT22;9344;52.294;13.626;2022-07-22T14:58:42;28.80;1.00
18434;DHT22;9344;52.294;13.626;2022-07-22T15:01:09;29.20;1.00
18434;DHT22;9344;52.294;13.626;2022-07-22T15:03:36;29.30;1.00
18434;DHT22;9344;52.294;13.626;2022-07-22T15:06:02;29.40;1.00
18434;DHT22;9344;52.294;13.626;2022-07-22T15:08:29;29.60;1.00
18434;DHT22;9344;52.294;13.626;2022-07-22T15:10:57;29.40;1.00
18434;DHT22;9344;52.294;13.626;2022-07-22T15:13:25;29.30;1.00
18434;DHT22;9344;52.294;13.626;2022-07-22T15:15:51;29.00;1.00
18434;DHT22;9344;52.294;13.626;2022-07-22T15:18:18;28.70;1.00
18434;DHT22;9344;52.294;13.626;2022-07-22T15:20:44;28.20;1.00
18434;DHT22;9344;52.294;13.626;2022-07-22T15:23:11;28.20;1.00
18434;DHT22;9344;52.294;13.626;2022-07-22T15:25:38;28.30;1.00
18434;DHT22;9344;52.294;13.626;2022-07-22T15:28:06;28.60;1.00
18434;DHT22;9344;52.294;13.626;2022-07-22T15:30:33;28.60;1.00
18434;DHT22;9344;52.294;13.626;2022-07-22T15:32:59;28.80;1.00
18434;DHT22;9344;52.294;13.626;2022-07-22T15:35:26;28.70;1.00
18434;DHT22;9344;52.294;13.626;2022-07-22T15:37:53;28.70;1.00
18434;DHT22;9344;52.294;13.626;2022-07-22T15:40:19;28.70;1.00
18434;DHT22;9344;52.294;13.626;2022-07-22T15:42:46;28.70;1.00